Terminal Aerodrome Forecast
Issued by NWS

Home | Current Version | Previous Version | Text Only | Print | Product List | Glossary On
Versions: 1 2 3 4 5 6 7 8 9 10 11 12 13
000
FTUS41 KLWX 231700
TAFMTN
TAF
KMTN 231735Z 2318/2418 16005KT P6SM BKN100
     FM240000 08004KT P6SM OVC110
     FM240100 VRB03KT 5SM -RA OVC050
     FM240300 12008KT 3SM RA OVC008
     FM240400 13010KT 2SM RA OVC008 WS020/15040KT
     FM240600 14014KT 1SM RA OVC008
     FM241000 17014KT 2SM -RA OVC003
     FM241200 18011KT P6SM OVC008=

USA.gov is the U.S. government's official web portal to all federal, state and local government web resources and services.